createdAt,value
2018-01-21T00:01:13.379Z,54.23
2018-01-21T00:03:41.753Z,47.40
2018-01-21T00:06:10.097Z,54.50
2018-01-21T00:08:38.461Z,50.50
2018-01-21T00:11:07.748Z,47.30
2018-01-21T00:13:36.875Z,48.93
2018-01-21T00:16:05.223Z,48.53
2018-01-21T00:18:34.355Z,44.13
2018-01-21T00:21:02.720Z,44.47
2018-01-21T00:23:31.916Z,45.10
2018-01-21T00:26:00.266Z,49.60
2018-01-21T00:28:28.817Z,49.77
2018-01-21T00:30:57.183Z,47.73
2018-01-21T00:33:25.564Z,47.40
2018-01-21T00:35:53.926Z,49.07
2018-01-21T00:38:22.483Z,46.47
2018-01-21T00:40:50.841Z,47.60
2018-01-21T00:43:20.635Z,53.10
2018-01-21T00:45:48.989Z,48.20
2018-01-21T00:48:17.333Z,48.43
2018-01-21T00:50:45.699Z,48.17
2018-01-21T00:53:14.820Z,45.80
2018-01-21T00:55:43.175Z,43.40
2018-01-21T00:58:12.303Z,44.00
2018-01-21T01:00:40.325Z,47.83
2018-01-21T01:03:09.622Z,50.00
2018-01-21T01:05:38.014Z,50.20
2018-01-21T01:08:07.136Z,51.40
2018-01-21T01:10:35.479Z,45.80
2018-01-21T01:13:04.813Z,54.93
2018-01-21T01:15:33.182Z,59.23
2018-01-21T01:18:01.542Z,57.30
2018-01-21T01:20:30.665Z,57.73
2018-01-21T01:22:59.042Z,59.30
2018-01-21T01:25:27.406Z,65.13
2018-01-21T01:27:56.690Z,54.20
2018-01-21T01:30:25.820Z,56.20
2018-01-21T01:32:54.172Z,54.60
2018-01-21T01:35:23.493Z,48.83
2018-01-21T01:37:51.868Z,60.10
2018-01-21T01:40:20.244Z,55.97
2018-01-21T01:42:48.593Z,52.60
2018-01-21T01:45:17.777Z,52.97
2018-01-21T01:47:46.272Z,53.03
2018-01-21T01:50:15.403Z,56.10
2018-01-21T01:52:43.759Z,52.70
2018-01-21T01:55:12.101Z,56.20
2018-01-21T01:57:41.217Z,60.90
2018-01-21T02:00:10.344Z,64.23
2018-01-21T02:02:38.671Z,57.77
2018-01-21T02:05:07.050Z,61.10
2018-01-21T02:07:35.872Z,65.07
2018-01-21T02:10:03.554Z,54.97
2018-01-21T02:12:32.107Z,80.43
2018-01-21T02:15:00.511Z,80.17
2018-01-21T02:17:28.883Z,56.27
2018-01-21T02:19:57.234Z,46.80
2018-01-21T02:22:26.379Z,53.80
2018-01-21T02:24:59.336Z,51.17
2018-01-21T02:27:27.969Z,50.30
2018-01-21T02:29:56.330Z,50.60
2018-01-21T02:32:24.700Z,49.97
2018-01-21T02:34:52.721Z,55.73
2018-01-21T02:37:21.845Z,50.00
2018-01-21T02:39:50.198Z,54.37
2018-01-21T02:42:19.329Z,60.40
2018-01-21T02:44:47.705Z,63.57
2018-01-21T02:47:16.394Z,57.97
2018-01-21T02:49:44.759Z,49.77
2018-01-21T02:52:13.441Z,50.67
2018-01-21T02:54:41.790Z,60.43
2018-01-21T02:57:10.979Z,61.17
2018-01-21T02:59:40.116Z,52.23
2018-01-21T03:02:08.458Z,50.67
2018-01-21T03:04:37.593Z,42.37
2018-01-21T03:07:05.766Z,37.50
2018-01-21T03:09:34.119Z,32.70
2018-01-21T03:12:02.485Z,37.83
2018-01-21T03:14:31.620Z,39.13
2018-01-21T03:16:59.995Z,37.40
2018-01-21T03:19:28.437Z,28.93
2018-01-21T03:21:57.585Z,30.97
2018-01-21T03:24:25.923Z,28.60
2018-01-21T03:26:55.208Z,28.73
2018-01-21T03:29:24.319Z,26.30
2018-01-21T03:31:53.442Z,27.80
2018-01-21T03:34:21.797Z,24.57
2018-01-21T03:36:50.926Z,25.83
2018-01-21T03:39:19.274Z,23.33
2018-01-21T03:41:47.826Z,26.57
2018-01-21T03:44:16.197Z,23.20
2018-01-21T03:46:46.216Z,28.00
2018-01-21T03:49:14.712Z,28.33
2018-01-21T03:51:43.846Z,32.53
2018-01-21T03:54:12.025Z,28.63
2018-01-21T03:56:40.536Z,27.47
2018-01-21T03:59:08.874Z,26.93
2018-01-21T04:01:37.262Z,27.83
2018-01-21T04:04:05.828Z,32.43
2018-01-21T04:06:34.232Z,27.50
2018-01-21T04:09:02.604Z,32.40
2018-01-21T04:11:30.978Z,31.00
2018-01-21T04:13:59.317Z,28.10
2018-01-21T04:16:27.682Z,37.00
2018-01-21T04:18:56.804Z,33.43
2018-01-21T04:21:25.153Z,32.20
2018-01-21T04:23:54.280Z,35.40
2018-01-21T04:26:22.734Z,34.43
2018-01-21T04:28:52.258Z,35.37
2018-01-21T04:31:20.597Z,34.40
2018-01-21T04:33:48.974Z,37.80
2018-01-21T04:36:17.306Z,39.43
2018-01-21T04:38:45.641Z,47.00
2018-01-21T04:41:14.791Z,34.90
2018-01-21T04:43:43.138Z,42.00
2018-01-21T04:46:11.499Z,40.20
2018-01-21T04:48:40.958Z,47.77
2018-01-21T04:51:09.663Z,52.13
2018-01-21T04:53:38.015Z,48.07
2018-01-21T04:56:06.384Z,46.10
2018-01-21T04:58:34.754Z,50.00
2018-01-21T05:01:03.130Z,42.87
2018-01-21T05:03:31.490Z,47.83
2018-01-21T05:06:00.602Z,39.97
2018-01-21T05:08:28.966Z,41.60
2018-01-21T05:10:57.319Z,41.20
2018-01-21T05:13:26.495Z,39.43
2018-01-21T05:15:54.834Z,43.90
2018-01-21T05:18:23.466Z,42.57
2018-01-21T05:20:51.832Z,39.97
2018-01-21T05:23:20.190Z,37.90
2018-01-21T05:25:48.549Z,38.80
2018-01-21T05:28:16.910Z,45.23
2018-01-21T05:30:45.268Z,39.47
2018-01-21T05:33:14.721Z,43.93
2018-01-21T05:35:43.149Z,42.23
2018-01-21T05:38:11.529Z,40.10
2018-01-21T05:40:41.030Z,37.93
2018-01-21T05:43:10.143Z,45.77
2018-01-21T05:45:38.169Z,38.97
2018-01-21T05:48:06.635Z,36.67
2018-01-21T05:50:34.996Z,39.97
2018-01-21T05:53:03.359Z,39.63
2018-01-21T05:55:31.756Z,33.53
2018-01-21T05:58:00.112Z,33.90
2018-01-21T06:00:28.473Z,42.77
2018-01-21T06:02:57.661Z,34.77
2018-01-21T06:05:26.778Z,32.93
2018-01-21T06:07:55.148Z,36.30
2018-01-21T06:10:23.543Z,33.20
2018-01-21T06:12:51.907Z,33.43
2018-01-21T06:15:21.039Z,28.80
2018-01-21T06:17:49.387Z,29.40
2018-01-21T06:20:17.690Z,36.40
2018-01-21T06:22:46.065Z,29.63
2018-01-21T06:25:14.445Z,25.67
2018-01-21T06:27:42.953Z,32.57
2018-01-21T06:30:11.346Z,30.77
2018-01-21T06:32:39.729Z,26.40
2018-01-21T06:35:08.145Z,25.93
2018-01-21T06:37:36.539Z,27.70
2018-01-21T06:40:04.903Z,26.10
2018-01-21T06:42:33.257Z,26.73
2018-01-21T06:45:02.698Z,31.43
2018-01-21T06:47:31.065Z,28.07
2018-01-21T06:49:59.582Z,24.83
2018-01-21T06:52:28.046Z,23.53
2018-01-21T06:54:56.410Z,28.43
2018-01-21T06:57:25.348Z,20.23
2018-01-21T06:59:53.882Z,20.77
2018-01-21T07:02:21.972Z,20.13
2018-01-21T07:04:50.354Z,19.90
2018-01-21T07:07:18.416Z,21.43
2018-01-21T07:09:46.817Z,18.77
2018-01-21T07:12:15.173Z,19.63
2018-01-21T07:14:43.797Z,19.60
2018-01-21T07:17:12.929Z,16.77
2018-01-21T07:19:41.263Z,20.30
2018-01-21T07:22:09.628Z,18.13
2018-01-21T07:24:38.138Z,17.53
2018-01-21T07:27:06.594Z,19.30
2018-01-21T07:29:34.962Z,19.70
2018-01-21T07:32:04.251Z,16.03
2018-01-21T07:34:32.605Z,16.50
2018-01-21T07:37:00.977Z,15.97
2018-01-21T07:39:29.323Z,19.97
2018-01-21T07:41:58.477Z,20.97
2018-01-21T07:44:26.832Z,16.50
2018-01-21T07:46:55.283Z,17.00
2018-01-21T07:49:23.658Z,15.97
2018-01-21T07:51:52.782Z,16.27
2018-01-21T07:54:21.159Z,16.33
2018-01-21T07:56:49.701Z,14.00
2018-01-21T07:59:18.848Z,15.13
2018-01-21T08:01:47.350Z,15.83
2018-01-21T08:04:15.706Z,10.27
2018-01-21T08:06:44.477Z,14.77
2018-01-21T08:09:12.839Z,13.30
2018-01-21T08:11:41.399Z,14.20
2018-01-21T08:14:10.890Z,15.70
2018-01-21T08:16:39.261Z,13.47
2018-01-21T08:19:07.735Z,16.17
2018-01-21T08:21:36.496Z,13.17
2018-01-21T08:24:05.104Z,15.80
2018-01-21T08:26:33.588Z,13.93
2018-01-21T08:29:01.768Z,14.73
2018-01-21T08:31:30.165Z,13.00
2018-01-21T08:34:04.055Z,13.33
2018-01-21T08:36:37.919Z,14.63
2018-01-21T08:39:15.330Z,11.90
2018-01-21T08:41:47.337Z,13.83
2018-01-21T08:44:16.446Z,10.20
2018-01-21T08:46:44.815Z,13.83
2018-01-21T08:49:13.931Z,10.00
2018-01-21T08:51:42.096Z,15.53
2018-01-21T08:54:10.443Z,11.10
2018-01-21T08:56:38.813Z,13.90
2018-01-21T08:59:07.167Z,13.87
2018-01-21T09:01:36.118Z,10.40
2018-01-21T09:04:04.440Z,13.50
2018-01-21T09:06:32.794Z,13.37
2018-01-21T09:09:01.024Z,11.33
2018-01-21T09:11:30.197Z,13.43
2018-01-21T09:13:58.551Z,8.60
2018-01-21T09:16:26.928Z,11.27
2018-01-21T09:18:55.397Z,10.73
2018-01-21T09:21:23.784Z,15.83
2018-01-21T09:23:52.165Z,10.07
2018-01-21T09:26:20.539Z,10.40
2018-01-21T09:28:48.899Z,12.07
2018-01-21T09:31:17.265Z,10.43
2018-01-21T09:33:46.402Z,9.03
2018-01-21T09:36:14.774Z,10.50
2018-01-21T09:38:43.140Z,8.63
2018-01-21T09:41:11.535Z,14.93
2018-01-21T09:43:39.895Z,12.80
2018-01-21T09:46:08.531Z,12.20
2018-01-21T09:48:37.826Z,11.33
2018-01-21T09:51:06.150Z,8.73
2018-01-21T09:53:34.507Z,14.07
2018-01-21T09:56:02.884Z,11.27
2018-01-21T09:58:32.024Z,12.40
2018-01-21T10:01:00.555Z,10.30
2018-01-21T10:03:29.713Z,7.27
2018-01-21T10:05:58.120Z,12.47
2018-01-21T10:08:27.331Z,14.53
2018-01-21T10:10:56.571Z,8.40
2018-01-21T10:13:25.064Z,7.30
2018-01-21T10:15:53.568Z,9.57
2018-01-21T10:18:23.633Z,7.93
2018-01-21T10:20:52.003Z,7.20
2018-01-21T10:23:20.496Z,11.40
2018-01-21T10:25:48.841Z,7.67
2018-01-21T10:28:18.125Z,9.40
2018-01-21T10:30:47.248Z,14.13
2018-01-21T10:33:15.907Z,10.60
2018-01-21T10:35:45.179Z,7.43
2018-01-21T10:38:14.204Z,7.10
2018-01-21T10:40:43.359Z,7.80
2018-01-21T10:43:11.719Z,5.60
2018-01-21T10:45:40.191Z,12.50
2018-01-21T10:48:08.352Z,10.20
2018-01-21T10:50:36.732Z,7.20
2018-01-21T10:53:05.089Z,7.40
2018-01-21T10:55:34.212Z,7.67
2018-01-21T10:58:02.644Z,8.70
2018-01-21T11:00:37.961Z,9.37
2018-01-21T11:03:06.360Z,7.33
2018-01-21T11:05:34.832Z,8.83
2018-01-21T11:08:03.301Z,8.63
2018-01-21T11:10:31.654Z,10.63
2018-01-21T11:13:00.004Z,9.73
2018-01-21T11:15:29.010Z,7.63
2018-01-21T11:17:57.404Z,9.17
2018-01-21T11:20:25.754Z,5.80
2018-01-21T11:22:54.881Z,7.23
2018-01-21T11:25:23.233Z,9.00
2018-01-21T11:27:51.622Z,9.77
2018-01-21T11:30:19.981Z,11.13
2018-01-21T11:32:49.130Z,5.87
2018-01-21T11:35:17.493Z,10.27
2018-01-21T11:37:45.871Z,5.73
2018-01-21T11:40:14.306Z,8.47
2018-01-21T11:42:43.718Z,9.43
2018-01-21T11:45:12.660Z,8.87
2018-01-21T11:47:41.040Z,15.43
2018-01-21T11:50:09.398Z,7.50
2018-01-21T11:52:37.779Z,9.50
2018-01-21T11:55:06.189Z,10.87
2018-01-21T11:57:34.530Z,7.07
2018-01-21T12:00:02.896Z,8.00
2018-01-21T12:02:31.290Z,10.00
2018-01-21T12:04:59.662Z,13.60
2018-01-21T12:07:27.999Z,10.43
2018-01-21T12:09:56.941Z,9.10
2018-01-21T12:12:25.283Z,8.50
2018-01-21T12:14:53.641Z,12.90
2018-01-21T12:17:22.793Z,7.80
2018-01-21T12:19:51.147Z,7.47
2018-01-21T12:22:19.554Z,5.43
2018-01-21T12:24:47.914Z,11.50
2018-01-21T12:27:16.345Z,9.73
2018-01-21T12:29:45.451Z,6.80
2018-01-21T12:32:14.634Z,8.17
2018-01-21T12:34:43.780Z,6.20
2018-01-21T12:37:12.309Z,7.67
2018-01-21T12:39:41.240Z,8.90
2018-01-21T12:42:09.586Z,5.60
2018-01-21T12:44:38.700Z,7.73
2018-01-21T12:47:07.049Z,8.73
2018-01-21T12:49:35.418Z,12.37
2018-01-21T12:52:03.770Z,7.80
2018-01-21T12:54:33.059Z,5.07
2018-01-21T12:57:01.777Z,8.80
2018-01-21T12:59:30.156Z,8.13
2018-01-21T13:01:58.729Z,12.17
2018-01-21T13:04:27.244Z,9.83
2018-01-21T13:06:56.380Z,8.07
2018-01-21T13:09:24.806Z,8.67
2018-01-21T13:11:53.156Z,8.73
2018-01-21T13:14:21.499Z,7.97
2018-01-21T13:16:49.855Z,5.43
2018-01-21T13:19:18.438Z,5.60
2018-01-21T13:21:47.771Z,5.60
2018-01-21T13:24:16.363Z,6.13
2018-01-21T13:26:44.721Z,6.20
2018-01-21T13:29:13.070Z,7.10
2018-01-21T13:31:42.225Z,7.53
2018-01-21T13:34:10.785Z,5.90
2018-01-21T13:36:39.471Z,9.60
2018-01-21T13:39:07.865Z,9.10
2018-01-21T13:41:36.629Z,5.67
2018-01-21T13:44:04.993Z,6.43
2018-01-21T13:46:34.204Z,5.70
2018-01-21T13:49:02.555Z,7.03
2018-01-21T13:51:31.715Z,10.30
2018-01-21T13:54:00.251Z,6.60
2018-01-21T13:56:28.952Z,9.97
2018-01-21T13:58:57.324Z,7.40
2018-01-21T14:01:25.719Z,9.63
2018-01-21T14:03:54.101Z,7.37
2018-01-21T14:06:22.516Z,9.50
2018-01-21T14:08:50.914Z,9.73
2018-01-21T14:11:20.046Z,6.50
2018-01-21T14:13:48.622Z,6.20
2018-01-21T14:16:16.969Z,8.10
2018-01-21T14:18:46.125Z,8.23
2018-01-21T14:21:14.489Z,12.17
2018-01-21T14:23:42.906Z,5.00
2018-01-21T14:26:11.512Z,7.93
2018-01-21T14:28:40.635Z,6.67
2018-01-21T14:31:09.110Z,14.73
2018-01-21T14:33:38.406Z,7.07
2018-01-21T14:36:06.767Z,7.33
2018-01-21T14:38:34.935Z,7.83
2018-01-21T14:41:03.540Z,8.77
2018-01-21T14:43:31.928Z,10.33
2018-01-21T14:46:00.293Z,9.47
2018-01-21T14:48:28.883Z,14.17
2018-01-21T14:50:57.303Z,6.00
2018-01-21T14:53:25.716Z,8.10
2018-01-21T14:55:54.281Z,8.33
2018-01-21T14:58:23.414Z,7.33
2018-01-21T15:00:51.953Z,9.43
2018-01-21T15:03:26.346Z,8.10
2018-01-21T15:05:54.729Z,12.63
2018-01-21T15:08:23.108Z,12.17
2018-01-21T15:10:51.550Z,10.80
2018-01-21T15:13:20.507Z,12.43
2018-01-21T15:15:49.666Z,9.63
2018-01-21T15:18:18.045Z,12.93
2018-01-21T15:20:46.404Z,11.27
2018-01-21T15:23:14.974Z,11.70
2018-01-21T15:25:43.582Z,12.63
2018-01-21T15:28:11.957Z,14.80
2018-01-21T15:30:40.344Z,14.87
2018-01-21T15:33:08.545Z,16.30
2018-01-21T15:35:36.929Z,20.30
2018-01-21T15:38:06.816Z,17.70
2018-01-21T15:40:35.174Z,19.00
2018-01-21T15:43:03.577Z,14.10
2018-01-21T15:45:32.138Z,13.57
2018-01-21T15:48:02.261Z,13.87
2018-01-21T15:50:30.646Z,15.30
2018-01-21T15:52:59.016Z,13.60
2018-01-21T15:55:27.401Z,15.77
2018-01-21T15:57:55.798Z,15.40
2018-01-21T16:00:24.945Z,16.93
2018-01-21T16:02:53.321Z,15.90
2018-01-21T16:05:21.722Z,16.90
2018-01-21T16:07:50.134Z,22.00
2018-01-21T16:10:18.577Z,18.53
2018-01-21T16:12:46.923Z,12.17
2018-01-21T16:15:15.300Z,17.57
2018-01-21T16:17:43.662Z,14.70
2018-01-21T16:20:12.772Z,14.20
2018-01-21T16:22:41.933Z,15.13
2018-01-21T16:25:10.343Z,18.63
2018-01-21T16:27:38.746Z,22.13
2018-01-21T16:30:07.133Z,13.07
2018-01-21T16:32:35.631Z,17.73
2018-01-21T16:35:04.073Z,17.47
2018-01-21T16:37:43.674Z,19.17
2018-01-21T16:40:12.057Z,18.20
2018-01-21T16:42:40.431Z,21.83
2018-01-21T16:45:09.053Z,25.63
2018-01-21T16:47:37.405Z,22.47
2018-01-21T16:50:06.705Z,25.73
2018-01-21T16:52:35.223Z,23.87
2018-01-21T16:55:03.657Z,22.27
2018-01-21T16:57:33.095Z,19.03
2018-01-21T17:00:01.496Z,19.93
2018-01-21T17:02:29.992Z,23.17
2018-01-21T17:04:58.494Z,17.20
2018-01-21T17:07:26.888Z,18.63
2018-01-21T17:09:56.240Z,22.30
2018-01-21T17:12:24.639Z,21.67
2018-01-21T17:14:53.262Z,21.00
2018-01-21T17:17:21.708Z,23.47
2018-01-21T17:19:50.087Z,18.70
2018-01-21T17:22:18.436Z,26.73
2018-01-21T17:24:46.819Z,22.23
2018-01-21T17:27:15.204Z,18.70
2018-01-21T17:29:43.622Z,21.27
2018-01-21T17:32:12.843Z,19.33
2018-01-21T17:34:41.378Z,22.30
2018-01-21T17:37:09.945Z,19.77
2018-01-21T17:39:38.502Z,30.00
2018-01-21T17:42:07.040Z,19.43
2018-01-21T17:44:36.261Z,20.00
2018-01-21T17:47:04.962Z,17.80
2018-01-21T17:49:33.335Z,24.83
2018-01-21T17:52:02.019Z,19.73
2018-01-21T17:54:30.707Z,17.67
2018-01-21T17:56:59.126Z,29.57
2018-01-21T17:59:27.655Z,19.80
2018-01-21T18:01:55.962Z,20.47
2018-01-21T18:04:24.610Z,14.83
2018-01-21T18:06:53.011Z,19.43
2018-01-21T18:09:21.197Z,14.67
2018-01-21T18:11:50.033Z,17.93
2018-01-21T18:14:19.392Z,15.20
2018-01-21T18:16:47.761Z,14.73
2018-01-21T18:19:16.140Z,14.77
2018-01-21T18:21:44.543Z,17.50
2018-01-21T18:24:12.890Z,16.53
2018-01-21T18:26:41.424Z,15.60
2018-01-21T18:29:09.927Z,18.40
2018-01-21T18:31:38.983Z,19.33
2018-01-21T18:34:07.395Z,16.10
2018-01-21T18:36:36.386Z,22.73
2018-01-21T18:39:09.356Z,19.70
2018-01-21T18:41:37.721Z,12.40
2018-01-21T18:44:06.185Z,14.43
2018-01-21T18:46:34.861Z,12.83
2018-01-21T18:49:03.332Z,13.70
2018-01-21T18:51:32.004Z,16.43
2018-01-21T18:54:00.568Z,14.33
2018-01-21T18:56:29.116Z,13.30
2018-01-21T18:58:57.512Z,12.33
2018-01-21T19:01:26.915Z,11.00
2018-01-21T19:03:56.224Z,17.57
2018-01-21T19:06:27.197Z,14.17
2018-01-21T19:08:55.661Z,13.70
2018-01-21T19:11:24.075Z,10.37
2018-01-21T19:13:52.434Z,12.83
2018-01-21T19:16:20.906Z,13.63
2018-01-21T19:18:49.463Z,14.40
2018-01-21T19:21:18.593Z,13.57
2018-01-21T19:23:46.755Z,12.33
2018-01-21T19:26:15.349Z,13.27
2018-01-21T19:28:43.771Z,14.50
2018-01-21T19:31:12.202Z,19.50
2018-01-21T19:33:40.589Z,18.43
2018-01-21T19:36:09.001Z,13.80
2018-01-21T19:38:56.181Z,12.90
2018-01-21T19:41:28.156Z,16.30
2018-01-21T19:44:14.063Z,15.57
2018-01-21T19:46:42.481Z,15.67
2018-01-21T19:49:11.273Z,17.53
2018-01-21T19:51:39.679Z,18.80
2018-01-21T19:54:09.205Z,12.60
2018-01-21T19:56:37.733Z,13.70
2018-01-21T19:59:06.380Z,16.50
2018-01-21T20:01:34.724Z,12.80
2018-01-21T20:04:03.138Z,18.43
2018-01-21T20:06:31.378Z,13.00
2018-01-21T20:08:59.785Z,13.40
2018-01-21T20:11:28.383Z,17.60
2018-01-21T20:13:57.077Z,14.20
2018-01-21T20:16:26.252Z,9.80
2018-01-21T20:18:54.622Z,10.53
2018-01-21T20:21:23.074Z,15.97
2018-01-21T20:23:51.451Z,13.30
2018-01-21T20:26:19.863Z,17.77
2018-01-21T20:28:48.344Z,13.90
2018-01-21T20:31:16.769Z,13.93
2018-01-21T20:33:45.278Z,12.77
2018-01-21T20:36:13.660Z,11.93
2018-01-21T20:38:42.025Z,14.13
2018-01-21T20:41:10.560Z,13.60
2018-01-21T20:43:39.767Z,14.17
2018-01-21T20:46:08.918Z,12.10
2018-01-21T20:48:37.333Z,10.47
2018-01-21T20:51:20.542Z,14.40
2018-01-21T20:53:54.456Z,11.87
2018-01-21T20:56:24.052Z,12.00
2018-01-21T20:58:52.616Z,11.67
2018-01-21T21:01:21.138Z,16.93
2018-01-21T21:03:51.325Z,12.57
2018-01-21T21:06:19.883Z,15.43
2018-01-21T21:08:47.975Z,11.17
2018-01-21T21:11:16.483Z,10.50
2018-01-21T21:13:44.904Z,10.50
2018-01-21T21:16:13.320Z,9.00
2018-01-21T21:18:41.896Z,10.10
2018-01-21T21:21:10.270Z,13.40
2018-01-21T21:23:38.780Z,12.40
2018-01-21T21:26:07.320Z,13.73
2018-01-21T21:28:35.936Z,9.80
2018-01-21T21:31:04.270Z,11.23
2018-01-21T21:33:32.799Z,11.67
2018-01-21T21:36:03.640Z,11.50
2018-01-21T21:38:32.046Z,14.70
2018-01-21T21:41:01.188Z,16.43
2018-01-21T21:43:29.569Z,10.30
2018-01-21T21:45:58.002Z,10.00
2018-01-21T21:48:27.137Z,9.73
2018-01-21T21:50:55.511Z,9.37
2018-01-21T21:53:24.005Z,12.87
2018-01-21T21:55:53.145Z,12.90
2018-01-21T21:58:22.744Z,9.77
2018-01-21T22:00:52.093Z,16.13
2018-01-21T22:03:20.490Z,14.47
2018-01-21T22:05:48.860Z,10.63
2018-01-21T22:08:17.254Z,14.40
2018-01-21T22:10:45.623Z,10.90
2018-01-21T22:13:14.057Z,12.30
2018-01-21T22:15:42.616Z,14.23
2018-01-21T22:18:11.144Z,11.00
2018-01-21T22:20:39.641Z,11.80
2018-01-21T22:23:08.031Z,14.80
2018-01-21T22:25:36.415Z,11.50
2018-01-21T22:28:04.877Z,13.60
2018-01-21T22:30:33.258Z,10.77
2018-01-21T22:33:01.626Z,17.47
2018-01-21T22:35:30.002Z,12.10
2018-01-21T22:37:58.388Z,16.47
2018-01-21T22:40:26.787Z,14.30
2018-01-21T22:42:55.176Z,14.40
2018-01-21T22:45:23.581Z,15.23
2018-01-21T22:47:52.720Z,15.43
2018-01-21T22:50:21.076Z,17.43
2018-01-21T22:52:49.601Z,14.27
2018-01-21T22:55:18.013Z,13.40
2018-01-21T22:57:46.535Z,22.07
2018-01-21T23:00:15.060Z,16.00
2018-01-21T23:02:44.338Z,13.20
2018-01-21T23:05:12.841Z,14.57
2018-01-21T23:07:41.986Z,15.90
2018-01-21T23:10:10.339Z,21.87
2018-01-21T23:12:38.948Z,14.90
2018-01-21T23:15:07.314Z,20.87
2018-01-21T23:17:35.698Z,17.50
2018-01-21T23:20:04.064Z,14.47
2018-01-21T23:22:32.422Z,15.53
2018-01-21T23:25:00.835Z,14.80
2018-01-21T23:27:29.670Z,13.40
2018-01-21T23:29:58.044Z,12.40
2018-01-21T23:32:26.424Z,14.40
2018-01-21T23:34:54.998Z,12.80
2018-01-21T23:37:23.467Z,12.90
2018-01-21T23:39:51.855Z,14.37
2018-01-21T23:42:20.989Z,11.30
2018-01-21T23:44:49.345Z,10.33
2018-01-21T23:47:18.473Z,11.63
2018-01-21T23:49:46.856Z,11.03
2018-01-21T23:52:15.212Z,11.97
2018-01-21T23:54:44.236Z,12.40
2018-01-21T23:57:12.580Z,10.80
2018-01-21T23:59:41.591Z,11.77
